Fairmount Alpine — PBNA — position and weather

sailwx.info

Track history (hours):
 
Tides and Currents Weather Stations Pressure Air Temp Water Temp Dewpoint Dewpoint Depression Visibility Wind Speed Wind Dir Waves Ship Positions

Fairmount Alpine

Last reported at 2018-Jun-19 01:43 UTC. Time now 2018-Jun-20 09:46 UTC.
Position N 36°55' E 000°48'.

Length 75 m; draft 5.7 m.

Type: Tug. MMSI: 245164000.

Date/timePositionNaut miles runAvg speedWind from/ knotsBaromVisibWave heightAir tempDewpointWater temp
2018-Jun-19 01:43N 36°55' E 000°48'2 8.7
2018-Jun-19 01:30N 36°55' E 000°45'4 8.8
2018-Jun-19 01:00N 36°54' E 000°40'4 8.8
2018-Jun-19 00:30N 36°52' E 000°35'6 8.7
2018-Jun-18 23:48N 36°50' E 000°28'19 8.6
2018-Jun-18 21:32N 36°45' E 000°04'1 8.4
2018-Jun-18 21:27N 36°45' E 000°03'4 8.4
2018-Jun-18 21:00N 36°44' W 000°01'4 8.3
2018-Jun-18 20:30N 36°42' W 000°06'4 8.5
2018-Jun-18 20:00N 36°41' W 000°11'10 8.7
2018-Jun-18 18:53N 36°38' W 000°22'7 8.6
2018-Jun-18 18:07N 36°36' W 000°30'1 8.4
2018-Jun-18 18:00N 36°36' W 000°31'4 8.2
2018-Jun-18 17:28N 36°35' W 000°37'4 8.1
2018-Jun-18 17:00N 36°33' W 000°41'5 8.3
2018-Jun-18 16:22N 36°32' W 000°47'217 9.3
2018-Jun-17 16:56N 36°00' W 005°13'4 9.7
2018-Jun-17 16:30N 35°59' W 005°18'5 9.4
2018-Jun-17 16:00N 35°58' W 005°24'5 9.5
2018-Jun-17 15:30N 35°56' W 005°29'4 8.4
2018-Jun-17 14:58N 35°55' W 005°35'4 7.2
2018-Jun-17 14:22N 35°54' W 005°40'4 6.0
2018-Jun-17 13:46N 35°54' W 005°44'2 6.6
2018-Jun-17 13:30N 35°54' W 005°46'3 6.7
2018-Jun-17 13:00N 35°53' W 005°51'6 7.1
2018-Jun-17 12:13N 35°53' W 005°57'151 8.5
2018-Jun-16 18:32N 36°19' W 009°02'0 8.0
2018-Jun-16 18:29N 36°19' W 009°02'4 8.0
2018-Jun-16 18:00N 36°21' W 009°07'5 7.8
2018-Jun-16 17:18N 36°22' W 009°13'3 7.7
2018-Jun-16 16:57N 36°23' W 009°16'73 7.6
2018-Jun-16 07:19N 36°55' W 010°38'4 7.6
2018-Jun-16 06:44N 36°57' W 010°43'2 7.6
2018-Jun-16 06:30N 36°57' W 010°45'35 7.7
2018-Jun-16 01:54N 37°12' W 011°26'3 7.8
2018-Jun-16 01:30N 37°14' W 011°29'4 7.6
2018-Jun-16 00:54N 37°16' W 011°34'22 7.5
2018-Jun-15 21:57N 37°25' W 011°59'4 7.1
2018-Jun-15 21:23N 37°27' W 012°04'3 7.1
2018-Jun-15 21:00N 37°28' W 012°07'4 7.2
2018-Jun-15 20:27N 37°30' W 012°11'3 7.2
2018-Jun-15 20:00N 37°31' W 012°15'5 7.2
2018-Jun-15 19:23N 37°33' W 012°20'3 7.4
2018-Jun-15 18:56N 37°34' W 012°24'10 7.6
2018-Jun-15 17:39N 37°38' W 012°35'1 7.6
2018-Jun-15 17:30N 37°39' W 012°37'6 7.8
2018-Jun-15 16:40N 37°41' W 012°44'2 7.8
2018-Jun-15 16:24N 37°42' W 012°47'3 7.8
2018-Jun-15 16:00N 37°43' W 012°50'4 7.7
2018-Jun-15 15:30N 37°44' W 012°55'4 7.6
2018-Jun-15 14:57N 37°45' W 012°60'5 7.8
2018-Jun-15 14:22N 37°47' W 013°05'3 7.8
2018-Jun-15 14:00N 37°48' W 013°09'4 7.8
2018-Jun-15 13:30N 37°49' W 013°13'4 7.8
2018-Jun-15 13:00N 37°51' W 013°18'17 7.9
2018-Jun-15 10:52N 37°56' W 013°38'  
Track history (hours):
 
Tides and Currents Weather Stations Pressure Air Temp Water Temp Dewpoint Dewpoint Depression Visibility Wind Speed Wind Dir Waves Ship Positions

Fairmount Alpine

Last reported at 2018-Jun-19 01:43 UTC. Time now 2018-Jun-20 09:46 UTC.
Position N 36°55' E 000°48'.

Length 75 m; draft 5.7 m.

Type: Tug. MMSI: 245164000.

Date/timePositionNaut miles runAvg speedWind from/ knotsBaromVisibWave heightAir tempDewpointWater temp
2018-Jun-19 01:43N 36°55' E 000°48'2 8.7
2018-Jun-19 01:30N 36°55' E 000°45'4 8.8
2018-Jun-19 01:00N 36°54' E 000°40'4 8.8
2018-Jun-19 00:30N 36°52' E 000°35'6 8.7
2018-Jun-18 23:48N 36°50' E 000°28'19 8.6
2018-Jun-18 21:32N 36°45' E 000°04'1 8.4
2018-Jun-18 21:27N 36°45' E 000°03'4 8.4
2018-Jun-18 21:00N 36°44' W 000°01'4 8.3
2018-Jun-18 20:30N 36°42' W 000°06'4 8.5
2018-Jun-18 20:00N 36°41' W 000°11'10 8.7
2018-Jun-18 18:53N 36°38' W 000°22'7 8.6
2018-Jun-18 18:07N 36°36' W 000°30'1 8.4
2018-Jun-18 18:00N 36°36' W 000°31'4 8.2
2018-Jun-18 17:28N 36°35' W 000°37'4 8.1
2018-Jun-18 17:00N 36°33' W 000°41'5 8.3
2018-Jun-18 16:22N 36°32' W 000°47'217 9.3
2018-Jun-17 16:56N 36°00' W 005°13'4 9.7
2018-Jun-17 16:30N 35°59' W 005°18'5 9.4
2018-Jun-17 16:00N 35°58' W 005°24'5 9.5
2018-Jun-17 15:30N 35°56' W 005°29'4 8.4
2018-Jun-17 14:58N 35°55' W 005°35'4 7.2
2018-Jun-17 14:22N 35°54' W 005°40'4 6.0
2018-Jun-17 13:46N 35°54' W 005°44'2 6.6
2018-Jun-17 13:30N 35°54' W 005°46'3 6.7
2018-Jun-17 13:00N 35°53' W 005°51'6 7.1
2018-Jun-17 12:13N 35°53' W 005°57'151 8.5
2018-Jun-16 18:32N 36°19' W 009°02'0 8.0
2018-Jun-16 18:29N 36°19' W 009°02'4 8.0
2018-Jun-16 18:00N 36°21' W 009°07'5 7.8
2018-Jun-16 17:18N 36°22' W 009°13'3 7.7
2018-Jun-16 16:57N 36°23' W 009°16'73 7.6
2018-Jun-16 07:19N 36°55' W 010°38'4 7.6
2018-Jun-16 06:44N 36°57' W 010°43'2 7.6
2018-Jun-16 06:30N 36°57' W 010°45'35 7.7
2018-Jun-16 01:54N 37°12' W 011°26'3 7.8
2018-Jun-16 01:30N 37°14' W 011°29'4 7.6
2018-Jun-16 00:54N 37°16' W 011°34'22 7.5
2018-Jun-15 21:57N 37°25' W 011°59'4 7.1
2018-Jun-15 21:23N 37°27' W 012°04'3 7.1
2018-Jun-15 21:00N 37°28' W 012°07'4 7.2
2018-Jun-15 20:27N 37°30' W 012°11'3 7.2
2018-Jun-15 20:00N 37°31' W 012°15'5 7.2
2018-Jun-15 19:23N 37°33' W 012°20'3 7.4
2018-Jun-15 18:56N 37°34' W 012°24'10 7.6
2018-Jun-15 17:39N 37°38' W 012°35'1 7.6
2018-Jun-15 17:30N 37°39' W 012°37'6 7.8
2018-Jun-15 16:40N 37°41' W 012°44'2 7.8
2018-Jun-15 16:24N 37°42' W 012°47'3 7.8
2018-Jun-15 16:00N 37°43' W 012°50'4 7.7
2018-Jun-15 15:30N 37°44' W 012°55'4 7.6
2018-Jun-15 14:57N 37°45' W 012°60'5 7.8
2018-Jun-15 14:22N 37°47' W 013°05'3 7.8
2018-Jun-15 14:00N 37°48' W 013°09'4 7.8
2018-Jun-15 13:30N 37°49' W 013°13'4 7.8
2018-Jun-15 13:00N 37°51' W 013°18'17 7.9
2018-Jun-15 10:52N 37°56' W 013°38'  

Dump ship's entire track history